DARAJ35 WIHH-WSSS
Flight info
| Callsign | DARAJ35 |
|---|---|
| Flight time | N/A |
| Altitude | FL400 |
| Route | DOLT1E DOLTA A585 GUSKO G579 REPOV REPO2B |
| Aircraft | CL60/M-SADE3FGHIJ3J4J7P2RWXY/HB1D1 |
Departure
| Time | 2026-04-13 22:09 |
|---|---|
| Airport | Halim Perdanakusuma International Airport (WIHH) |
Arrival
| Time | N/A |
|---|---|
| Airport | Singapore Changi Airport (WSSS) |
| Time | Latitude | Longitude | Altitude | Speed | Heading |
|---|---|---|---|---|---|
| 2026-04-13 22:09 | -6.29030 | 106.97983 | 7860 ft | 271 kts | 121° |
| 2026-04-13 22:09 | -6.29977 | 106.99615 | 9095 ft | 278 kts | 121° |
| 2026-04-13 22:09 | -6.30930 | 107.01293 | 10318 ft | 284 kts | 121° |
| 2026-04-13 22:10 | -6.31924 | 107.03076 | 11156 ft | 306 kts | 120° |
| 2026-04-13 22:10 | -6.33014 | 107.04970 | 11954 ft | 324 kts | 126° |
| 2026-04-13 22:10 | -6.34587 | 107.06578 | 12943 ft | 331 kts | 147° |
| 2026-04-13 22:10 | -6.36596 | 107.07686 | 13943 ft | 337 kts | 154° |
| 2026-04-13 22:11 | -6.38778 | 107.08567 | 14934 ft | 343 kts | 166° |
| 2026-04-13 22:11 | -6.41149 | 107.08776 | 15900 ft | 347 kts | 185° |
| 2026-04-13 22:11 | -6.43481 | 107.08166 | 16812 ft | 353 kts | 205° |
| 2026-04-13 22:11 | -6.45537 | 107.06796 | 17625 ft | 361 kts | 217° |
| 2026-04-13 22:12 | -6.47488 | 107.05175 | 18431 ft | 369 kts | 225° |
| 2026-04-13 22:12 | -6.49019 | 107.03122 | 19293 ft | 373 kts | 242° |
| 2026-04-13 22:12 | -6.49893 | 107.00673 | 20088 ft | 378 kts | 260° |
| 2026-04-13 22:12 | -6.49938 | 106.98031 | 20836 ft | 382 kts | 279° |
| 2026-04-13 22:13 | -6.49331 | 106.95447 | 21544 ft | 388 kts | 285° |
| 2026-04-13 22:13 | -6.48582 | 106.92846 | 22286 ft | 391 kts | 292° |
| 2026-04-13 22:13 | -6.47249 | 106.90475 | 23014 ft | 394 kts | 305° |
| 2026-04-13 22:13 | -6.45680 | 106.88184 | 23673 ft | 401 kts | 305° |
| 2026-04-13 22:14 | -6.44100 | 106.85861 | 24359 ft | 407 kts | 304° |
| 2026-04-13 22:14 | -6.42499 | 106.83507 | 25027 ft | 412 kts | 304° |
| 2026-04-13 22:14 | -6.40913 | 106.81078 | 25663 ft | 418 kts | 299° |
| 2026-04-13 22:14 | -6.39859 | 106.78386 | 26286 ft | 422 kts | 283° |
| 2026-04-13 22:15 | -6.39542 | 106.75453 | 26843 ft | 428 kts | 270° |
| 2026-04-13 22:15 | -6.39513 | 106.72454 | 27405 ft | 433 kts | 270° |
| 2026-04-13 22:15 | -6.39476 | 106.69431 | 28003 ft | 437 kts | 270° |
| 2026-04-13 22:15 | -6.39437 | 106.66381 | 28584 ft | 440 kts | 270° |
| 2026-04-13 22:16 | -6.39396 | 106.63305 | 29151 ft | 443 kts | 270° |
| 2026-04-13 22:16 | -6.39354 | 106.60202 | 29656 ft | 448 kts | 270° |
| 2026-04-13 22:16 | -6.39301 | 106.57071 | 30134 ft | 452 kts | 271° |
| 2026-04-13 22:16 | -6.38822 | 106.53946 | 30605 ft | 456 kts | 285° |
| 2026-04-13 22:17 | -6.37591 | 106.50999 | 31038 ft | 459 kts | 300° |
| 2026-04-13 22:17 | -6.35657 | 106.48457 | 31472 ft | 460 kts | 316° |
| 2026-04-13 22:17 | -6.33171 | 106.46466 | 31865 ft | 461 kts | 328° |
| 2026-04-13 22:17 | -6.30341 | 106.44915 | 32239 ft | 463 kts | 338° |
| 2026-04-13 22:18 | -6.27341 | 106.43684 | 32574 ft | 466 kts | 340° |
| 2026-04-13 22:18 | -6.24338 | 106.42480 | 32938 ft | 470 kts | 340° |
| 2026-04-13 22:18 | -6.21275 | 106.41243 | 33344 ft | 472 kts | 340° |
| 2026-04-13 22:18 | -6.18241 | 106.40014 | 33748 ft | 473 kts | 340° |
| 2026-04-13 22:19 | -6.15192 | 106.38774 | 34227 ft | 473 kts | 339° |
| 2026-04-13 22:19 | -6.12146 | 106.37532 | 34862 ft | 469 kts | 339° |
| 2026-04-13 22:19 | -6.09169 | 106.36305 | 35550 ft | 463 kts | 338° |
| 2026-04-13 22:19 | -6.06277 | 106.34984 | 36184 ft | 459 kts | 335° |
| 2026-04-13 22:20 | -6.03490 | 106.33557 | 36717 ft | 456 kts | 334° |
| 2026-04-13 22:20 | -6.00676 | 106.32097 | 37183 ft | 454 kts | 334° |
| 2026-04-13 22:20 | -5.97878 | 106.30648 | 37568 ft | 454 kts | 334° |
| 2026-04-13 22:20 | -5.95097 | 106.29209 | 37908 ft | 454 kts | 334° |
| 2026-04-13 22:21 | -5.92281 | 106.27753 | 38226 ft | 454 kts | 334° |
| 2026-04-13 22:21 | -5.89484 | 106.26306 | 38525 ft | 454 kts | 334° |
| 2026-04-13 22:21 | -5.86660 | 106.24846 | 38876 ft | 454 kts | 334° |
| 2026-04-13 22:21 | -5.83873 | 106.23406 | 39215 ft | 453 kts | 334° |
| 2026-04-13 22:22 | -5.81088 | 106.21967 | 39530 ft | 452 kts | 334° |
| 2026-04-13 22:22 | -5.78285 | 106.20519 | 39820 ft | 452 kts | 334° |
| 2026-04-13 22:22 | -5.75506 | 106.19085 | 39887 ft | 455 kts | 334° |
| 2026-04-13 22:23 | -5.69840 | 106.16160 | 39889 ft | 457 kts | 334° |
| 2026-04-13 22:23 | -5.64184 | 106.13241 | 39892 ft | 463 kts | 334° |
| 2026-04-13 22:24 | -5.58377 | 106.10245 | 39888 ft | 470 kts | 334° |
| 2026-04-13 22:24 | -5.52482 | 106.07204 | 39885 ft | 476 kts | 334° |
| 2026-04-13 22:25 | -5.46618 | 106.04180 | 39886 ft | 478 kts | 334° |
| 2026-04-13 22:25 | -5.40578 | 106.01433 | 39892 ft | 476 kts | 343° |
| 2026-04-13 22:26 | -5.34269 | 105.99410 | 39897 ft | 475 kts | 343° |
| 2026-04-13 22:26 | -5.27949 | 105.97380 | 39900 ft | 475 kts | 343° |
| 2026-04-13 22:27 | -5.21654 | 105.95359 | 39901 ft | 475 kts | 343° |
| 2026-04-13 22:27 | -5.15344 | 105.93332 | 39901 ft | 475 kts | 343° |
| 2026-04-13 22:28 | -5.09335 | 105.90639 | 39898 ft | 477 kts | 332° |
| 2026-04-13 22:28 | -5.03562 | 105.87333 | 39902 ft | 478 kts | 331° |
| 2026-04-13 22:29 | -4.97783 | 105.84032 | 39902 ft | 478 kts | 331° |
| 2026-04-13 22:29 | -4.92000 | 105.80732 | 39902 ft | 478 kts | 331° |
| 2026-04-13 22:30 | -4.86217 | 105.77434 | 39901 ft | 478 kts | 331° |
| 2026-04-13 22:30 | -4.80444 | 105.74144 | 39899 ft | 477 kts | 332° |
| 2026-04-13 22:31 | -4.74646 | 105.70840 | 39897 ft | 477 kts | 332° |
| 2026-04-13 22:31 | -4.68881 | 105.67557 | 39892 ft | 477 kts | 332° |
| 2026-04-13 22:32 | -4.63095 | 105.64264 | 39886 ft | 477 kts | 331° |
| 2026-04-13 22:32 | -4.57317 | 105.60975 | 39884 ft | 477 kts | 331° |
| 2026-04-13 22:33 | -4.51536 | 105.57686 | 39887 ft | 477 kts | 331° |
| 2026-04-13 22:33 | -4.45767 | 105.54404 | 39890 ft | 476 kts | 331° |
| 2026-04-13 22:34 | -4.34202 | 105.47828 | 39892 ft | 476 kts | 331° |
| 2026-04-13 22:35 | -4.28452 | 105.44559 | 39890 ft | 476 kts | 331° |
| 2026-04-13 22:35 | -4.22691 | 105.41285 | 39891 ft | 476 kts | 331° |
| 2026-04-13 22:36 | -4.16926 | 105.38009 | 39890 ft | 476 kts | 331° |
| 2026-04-13 22:36 | -4.11163 | 105.34735 | 39893 ft | 476 kts | 331° |
| 2026-04-13 22:37 | -4.05400 | 105.31461 | 39894 ft | 476 kts | 331° |
| 2026-04-13 22:37 | -3.99626 | 105.28183 | 39898 ft | 476 kts | 331° |
| 2026-04-13 22:38 | -3.93852 | 105.24904 | 39893 ft | 476 kts | 331° |
| 2026-04-13 22:38 | -3.88097 | 105.21653 | 39885 ft | 475 kts | 332° |
| 2026-04-13 22:39 | -3.82343 | 105.18413 | 39881 ft | 474 kts | 332° |
| 2026-04-13 22:39 | -3.76633 | 105.15198 | 39878 ft | 475 kts | 332° |
| 2026-04-13 22:40 | -3.70883 | 105.11962 | 39877 ft | 475 kts | 332° |
| 2026-04-13 22:40 | -3.65164 | 105.08743 | 39885 ft | 475 kts | 332° |
| 2026-04-13 22:41 | -3.59426 | 105.05514 | 39890 ft | 474 kts | 331° |
| 2026-04-13 22:41 | -3.53707 | 105.02296 | 39888 ft | 473 kts | 332° |
| 2026-04-13 22:42 | -3.48016 | 104.99094 | 39888 ft | 473 kts | 332° |
| 2026-04-13 22:42 | -3.42303 | 104.95881 | 39892 ft | 473 kts | 332° |
| 2026-04-13 22:43 | -3.36546 | 104.92643 | 39888 ft | 474 kts | 332° |
| 2026-04-13 22:43 | -3.30801 | 104.89413 | 39892 ft | 474 kts | 332° |
| 2026-04-13 22:44 | -3.25057 | 104.86183 | 39903 ft | 473 kts | 332° |
| 2026-04-13 22:44 | -3.19322 | 104.82959 | 39901 ft | 472 kts | 332° |
| 2026-04-13 22:45 | -3.13598 | 104.79741 | 39904 ft | 472 kts | 332° |
| 2026-04-13 22:45 | -3.07882 | 104.76529 | 39904 ft | 471 kts | 332° |
| 2026-04-13 22:46 | -3.02153 | 104.73309 | 39904 ft | 472 kts | 332° |
| 2026-04-13 22:46 | -2.96436 | 104.70097 | 39900 ft | 472 kts | 331° |
| 2026-04-13 22:47 | -2.90702 | 104.66904 | 39897 ft | 472 kts | 334° |
| 2026-04-13 22:47 | -2.84528 | 104.64690 | 39902 ft | 469 kts | 349° |
| 2026-04-13 22:48 | -2.78110 | 104.63459 | 39895 ft | 469 kts | 350° |
| 2026-04-13 22:48 | -2.71714 | 104.62244 | 39898 ft | 468 kts | 350° |
| 2026-04-13 22:49 | -2.65283 | 104.61024 | 39898 ft | 468 kts | 350° |
| 2026-04-13 22:49 | -2.58886 | 104.59812 | 39900 ft | 469 kts | 350° |
| 2026-04-13 22:50 | -2.52423 | 104.58588 | 39900 ft | 469 kts | 350° |
| 2026-04-13 22:50 | -2.45982 | 104.57369 | 39901 ft | 470 kts | 350° |
| 2026-04-13 22:51 | -2.39573 | 104.56157 | 39896 ft | 470 kts | 350° |
| 2026-04-13 22:51 | -2.33105 | 104.54934 | 39899 ft | 470 kts | 350° |
| 2026-04-13 22:52 | -2.26600 | 104.53705 | 39888 ft | 470 kts | 350° |
| 2026-04-13 22:52 | -2.20166 | 104.52489 | 39889 ft | 470 kts | 350° |
| 2026-04-13 22:53 | -2.13714 | 104.51270 | 39890 ft | 470 kts | 350° |
| 2026-04-13 22:53 | -2.07309 | 104.50060 | 39888 ft | 470 kts | 350° |
| 2026-04-13 22:54 | -2.00858 | 104.48842 | 39891 ft | 470 kts | 350° |
| 2026-04-13 22:54 | -1.94415 | 104.47625 | 39889 ft | 471 kts | 350° |
| 2026-04-13 22:55 | -1.87966 | 104.46408 | 39890 ft | 471 kts | 350° |
| 2026-04-13 22:55 | -1.81523 | 104.45191 | 39887 ft | 471 kts | 350° |
| 2026-04-13 22:56 | -1.75038 | 104.43967 | 39891 ft | 470 kts | 350° |
| 2026-04-13 22:56 | -1.68573 | 104.42746 | 39892 ft | 470 kts | 350° |
| 2026-04-13 22:57 | -1.62039 | 104.41513 | 39887 ft | 470 kts | 350° |
| 2026-04-13 22:57 | -1.55557 | 104.40289 | 39894 ft | 470 kts | 350° |
| 2026-04-13 22:58 | -1.49028 | 104.39057 | 39895 ft | 471 kts | 350° |
| 2026-04-13 22:58 | -1.42527 | 104.37830 | 39894 ft | 471 kts | 350° |
| 2026-04-13 22:59 | -1.36019 | 104.36602 | 39897 ft | 471 kts | 350° |
| 2026-04-13 22:59 | -1.29537 | 104.35378 | 39898 ft | 471 kts | 350° |
| 2026-04-13 23:00 | -1.23047 | 104.34154 | 39890 ft | 471 kts | 350° |
| 2026-04-13 23:00 | -1.16520 | 104.32922 | 39890 ft | 471 kts | 350° |
| 2026-04-13 23:01 | -1.10022 | 104.31696 | 39880 ft | 471 kts | 350° |
| 2026-04-13 23:01 | -1.03555 | 104.30475 | 39882 ft | 471 kts | 351° |
| 2026-04-13 23:02 | -0.97052 | 104.29249 | 39890 ft | 471 kts | 351° |
| 2026-04-13 23:02 | -0.90523 | 104.28017 | 39892 ft | 471 kts | 350° |
| 2026-04-13 23:03 | -0.83990 | 104.26784 | 39894 ft | 472 kts | 350° |
| 2026-04-13 23:03 | -0.77457 | 104.25551 | 39894 ft | 472 kts | 350° |
| 2026-04-13 23:04 | -0.70932 | 104.24320 | 39899 ft | 472 kts | 351° |
| 2026-04-13 23:04 | -0.64413 | 104.23090 | 39897 ft | 472 kts | 351° |
| 2026-04-13 23:05 | -0.58146 | 104.21907 | 39898 ft | 471 kts | 351° |
| 2026-04-13 23:05 | -0.57514 | 104.21788 | 39899 ft | 471 kts | 351° |
| 2026-04-13 23:06 | -0.51005 | 104.20531 | 39899 ft | 472 kts | 350° |
| 2026-04-13 23:06 | -0.44476 | 104.19255 | 39897 ft | 472 kts | 350° |
| 2026-04-13 23:07 | -0.38005 | 104.17960 | 39839 ft | 465 kts | 350° |
| 2026-04-13 23:07 | -0.34858 | 104.17329 | 39394 ft | 452 kts | 350° |
| 2026-04-13 23:07 | -0.31818 | 104.16721 | 38362 ft | 447 kts | 350° |
| 2026-04-13 23:07 | -0.28761 | 104.16111 | 37083 ft | 450 kts | 350° |
| 2026-04-13 23:08 | -0.25652 | 104.15492 | 35642 ft | 455 kts | 350° |
| 2026-04-13 23:08 | -0.22530 | 104.14869 | 34108 ft | 460 kts | 350° |
| 2026-04-13 23:08 | -0.19395 | 104.14244 | 32537 ft | 463 kts | 350° |
| 2026-04-13 23:08 | -0.16257 | 104.13619 | 31408 ft | 458 kts | 350° |
| 2026-04-13 23:09 | -0.13153 | 104.12999 | 30460 ft | 449 kts | 349° |
| 2026-04-13 23:09 | -0.10105 | 104.12391 | 29546 ft | 439 kts | 349° |
| 2026-04-13 23:09 | -0.07103 | 104.11793 | 28493 ft | 434 kts | 349° |
| 2026-04-13 23:09 | -0.04120 | 104.11198 | 27325 ft | 432 kts | 349° |
| 2026-04-13 23:10 | -0.01126 | 104.10602 | 26462 ft | 420 kts | 349° |
| 2026-04-13 23:10 | 0.01695 | 104.10041 | 25858 ft | 410 kts | 349° |
| 2026-04-13 23:10 | 0.04514 | 104.09480 | 25300 ft | 408 kts | 349° |
| 2026-04-13 23:10 | 0.07314 | 104.08923 | 24746 ft | 404 kts | 349° |
| 2026-04-13 23:11 | 0.10130 | 104.08363 | 24246 ft | 404 kts | 349° |
| 2026-04-13 23:11 | 0.12874 | 104.07817 | 23666 ft | 400 kts | 349° |
| 2026-04-13 23:11 | 0.15569 | 104.07281 | 23150 ft | 394 kts | 349° |
| 2026-04-13 23:11 | 0.18231 | 104.06752 | 22631 ft | 390 kts | 349° |
| 2026-04-13 23:12 | 0.20876 | 104.06227 | 22124 ft | 387 kts | 349° |
| 2026-04-13 23:12 | 0.23504 | 104.05704 | 21613 ft | 385 kts | 349° |
| 2026-04-13 23:12 | 0.26088 | 104.05191 | 21108 ft | 383 kts | 349° |
| 2026-04-13 23:12 | 0.28683 | 104.04676 | 20614 ft | 380 kts | 349° |
| 2026-04-13 23:13 | 0.31260 | 104.04165 | 20232 ft | 377 kts | 349° |
| 2026-04-13 23:13 | 0.33803 | 104.03660 | 19999 ft | 376 kts | 349° |
| 2026-04-13 23:13 | 0.36376 | 104.03150 | 19761 ft | 379 kts | 349° |
| 2026-04-13 23:13 | 0.38968 | 104.02635 | 19387 ft | 378 kts | 349° |
| 2026-04-13 23:14 | 0.41556 | 104.02122 | 19052 ft | 376 kts | 349° |
| 2026-04-13 23:14 | 0.44119 | 104.01613 | 18719 ft | 375 kts | 349° |
| 2026-04-13 23:14 | 0.46673 | 104.01107 | 18386 ft | 374 kts | 349° |
| 2026-04-13 23:14 | 0.49217 | 104.00602 | 18049 ft | 372 kts | 349° |
| 2026-04-13 23:15 | 0.51762 | 104.00097 | 17719 ft | 370 kts | 349° |
| 2026-04-13 23:15 | 0.54288 | 103.99596 | 17387 ft | 368 kts | 349° |
| 2026-04-13 23:15 | 0.56818 | 103.99094 | 17062 ft | 367 kts | 349° |
| 2026-04-13 23:15 | 0.59316 | 103.98598 | 16730 ft | 365 kts | 349° |
| 2026-04-13 23:16 | 0.61805 | 103.98104 | 16412 ft | 364 kts | 349° |
| 2026-04-13 23:16 | 0.64265 | 103.97616 | 16086 ft | 362 kts | 349° |
| 2026-04-13 23:16 | 0.66725 | 103.97128 | 15768 ft | 360 kts | 349° |
| 2026-04-13 23:16 | 0.69187 | 103.96640 | 15447 ft | 359 kts | 349° |
| 2026-04-13 23:17 | 0.71641 | 103.96267 | 15129 ft | 350 kts | 359° |
| 2026-04-13 23:17 | 0.73968 | 103.96531 | 14849 ft | 336 kts | 17° |
| 2026-04-13 23:17 | 0.76114 | 103.97343 | 14539 ft | 327 kts | 24° |
| 2026-04-13 23:17 | 0.78172 | 103.98213 | 14253 ft | 319 kts | 24° |
| 2026-04-13 23:18 | 0.80192 | 103.99061 | 13976 ft | 312 kts | 24° |
| 2026-04-13 23:18 | 0.82175 | 103.99895 | 13699 ft | 313 kts | 24° |
| 2026-04-13 23:18 | 0.84167 | 104.00732 | 13419 ft | 313 kts | 24° |
| 2026-04-13 23:18 | 0.86154 | 104.01569 | 13143 ft | 313 kts | 24° |
| 2026-04-13 23:19 | 0.88107 | 104.02391 | 12873 ft | 312 kts | 24° |
| 2026-04-13 23:19 | 0.90077 | 104.03221 | 12594 ft | 310 kts | 24° |
| 2026-04-13 23:19 | 0.92025 | 104.04043 | 12327 ft | 309 kts | 24° |
| 2026-04-13 23:19 | 0.93959 | 104.04858 | 12056 ft | 307 kts | 24° |
| 2026-04-13 23:20 | 0.95895 | 104.05677 | 11785 ft | 305 kts | 24° |
| 2026-04-13 23:20 | 0.97714 | 104.06635 | 11516 ft | 302 kts | 38° |
| 2026-04-13 23:20 | 0.99023 | 104.08187 | 11208 ft | 297 kts | 65° |
| 2026-04-13 23:20 | 0.99453 | 104.10131 | 10902 ft | 293 kts | 92° |
| 2026-04-13 23:21 | 0.98898 | 104.12060 | 10596 ft | 290 kts | 121° |
| 2026-04-13 23:21 | 0.97660 | 104.13620 | 10301 ft | 290 kts | 131° |
| 2026-04-13 23:21 | 0.96317 | 104.15090 | 10029 ft | 290 kts | 132° |
| 2026-04-13 23:21 | 0.94870 | 104.16445 | 9756 ft | 290 kts | 146° |
| 2026-04-13 23:22 | 0.93006 | 104.17120 | 9461 ft | 290 kts | 174° |
| 2026-04-13 23:22 | 0.91081 | 104.16789 | 9460 ft | 288 kts | 205° |
| 2026-04-13 23:22 | 0.89527 | 104.15554 | 9497 ft | 294 kts | 233° |
| 2026-04-13 23:22 | 0.88729 | 104.13735 | 9507 ft | 294 kts | 261° |
| 2026-04-13 23:23 | 0.88880 | 104.11751 | 9512 ft | 293 kts | 289° |
| 2026-04-13 23:23 | 0.89741 | 104.09938 | 9499 ft | 292 kts | 298° |
| 2026-04-13 23:23 | 0.90703 | 104.08200 | 9498 ft | 291 kts | 300° |
| 2026-04-13 23:23 | 0.91874 | 104.06624 | 9502 ft | 291 kts | 311° |
| 2026-04-13 23:24 | 0.93175 | 104.05188 | 9424 ft | 293 kts | 312° |
| 2026-04-13 23:24 | 0.95813 | 104.02256 | 8718 ft | 287 kts | 311° |
| 2026-04-13 23:24 | 0.97097 | 104.00828 | 8315 ft | 277 kts | 312° |
| 2026-04-13 23:25 | 0.98328 | 103.99459 | 8014 ft | 264 kts | 312° |
| 2026-04-13 23:25 | 0.99506 | 103.98148 | 7676 ft | 254 kts | 312° |
| 2026-04-13 23:25 | 1.00634 | 103.96894 | 7366 ft | 246 kts | 312° |
| 2026-04-13 23:25 | 1.01762 | 103.95638 | 7036 ft | 239 kts | 312° |
| 2026-04-13 23:26 | 1.02859 | 103.94417 | 6734 ft | 232 kts | 312° |
| 2026-04-13 23:26 | 1.03883 | 103.93276 | 6470 ft | 228 kts | 312° |
| 2026-04-13 23:26 | 1.04887 | 103.92160 | 6156 ft | 229 kts | 312° |
| 2026-04-13 23:26 | 1.05898 | 103.91033 | 5860 ft | 229 kts | 312° |
| 2026-04-13 23:27 | 1.06861 | 103.89964 | 5605 ft | 221 kts | 313° |
| 2026-04-13 23:27 | 1.07974 | 103.89126 | 5311 ft | 211 kts | 335° |
| 2026-04-13 23:27 | 1.09285 | 103.88831 | 5013 ft | 203 kts | 360° |
| 2026-04-13 23:27 | 1.10526 | 103.89068 | 4727 ft | 196 kts | 21° |
| 2026-04-13 23:28 | 1.11622 | 103.89529 | 4468 ft | 190 kts | 24° |
| 2026-04-13 23:28 | 1.12725 | 103.89995 | 4265 ft | 183 kts | 23° |
| 2026-04-13 23:28 | 1.13804 | 103.90447 | 4032 ft | 182 kts | 23° |
| 2026-04-13 23:28 | 1.14902 | 103.90907 | 3800 ft | 181 kts | 24° |
| 2026-04-13 23:29 | 1.15983 | 103.91361 | 3581 ft | 181 kts | 23° |
| 2026-04-13 23:29 | 1.17128 | 103.91842 | 3340 ft | 181 kts | 24° |
| 2026-04-13 23:29 | 1.18258 | 103.92317 | 3112 ft | 180 kts | 24° |
| 2026-04-13 23:29 | 1.19315 | 103.92762 | 2887 ft | 180 kts | 24° |
| 2026-04-13 23:30 | 1.20365 | 103.93203 | 2674 ft | 179 kts | 24° |
| 2026-04-13 23:30 | 1.21426 | 103.93650 | 2452 ft | 179 kts | 24° |
| 2026-04-13 23:30 | 1.22507 | 103.94106 | 2231 ft | 178 kts | 24° |
| 2026-04-13 23:30 | 1.23573 | 103.94556 | 2015 ft | 172 kts | 24° |
| 2026-04-13 23:31 | 1.24586 | 103.94984 | 1817 ft | 165 kts | 25° |
| 2026-04-13 23:31 | 1.25559 | 103.95395 | 1627 ft | 156 kts | 25° |
| 2026-04-13 23:31 | 1.26480 | 103.95785 | 1499 ft | 137 kts | 24° |
| 2026-04-13 23:31 | 1.27275 | 103.96124 | 1516 ft | 137 kts | 25° |
| 2026-04-13 23:32 | 1.28074 | 103.96463 | 1323 ft | 133 kts | 25° |
| 2026-04-13 23:32 | 1.28788 | 103.96754 | 1121 ft | 124 kts | 25° |
| 2026-04-13 23:32 | 1.29490 | 103.97049 | 925 ft | 128 kts | 24° |
| 2026-04-13 23:32 | 1.30179 | 103.97349 | 666 ft | 124 kts | 27° |
| 2026-04-13 23:33 | 1.30835 | 103.97650 | 540 ft | 118 kts | 26° |
| 2026-04-13 23:33 | 1.31501 | 103.97919 | 440 ft | 125 kts | 24° |
| 2026-04-13 23:33 | 1.32203 | 103.98206 | 203 ft | 119 kts | 23° |
| 2026-04-13 23:33 | 1.32886 | 103.98495 | 83 ft | 122 kts | 24° |
| 2026-04-13 23:34 | 1.33529 | 103.98765 | 17 ft | 106 kts | 24° |
| 2026-04-13 23:34 | 1.34020 | 103.98981 | 17 ft | 69 kts | 24° |